Terminal Aerodrome Forecast
Issued by NWS Los Angeles, CA

Home | Current Version | Previous Version | Text Only | Print | Product List | Glossary On
Versions: 1 2 3 4 5 6 7 8 9 10 11 12 13 14 15 16 17 18 19 20 21 22 23 24 25 26 27 28 29 30 31 32
000
FTUS46 KLOX 202009 AAB
TAFSMX
TAF AMD
KSMX 202009Z 2020/2118 33012KT 4SM -RA BR SCT015 BKN050
     FM202130 27020G30KT 5SM -SHRA BR SCT025 OVC035
     FM210200 31012KT P6SM -SHRA BKN025 OVC040
     FM210800 33007KT P6SM VCSH SCT025 BKN050=

USA.gov is the U.S. government's official web portal to all federal, state and local government web resources and services.